sensor_id;sensor_type;location;lat;lon;timestamp;pressure;altitude;pressure_sealevel;temperature;humidity
55757;BME280;41676;44.610;44.078;2023-12-28T00:04:48;100310.84;;;7.00;88.28
55757;BME280;41676;44.610;44.078;2023-12-28T00:09:49;100381.63;;;7.24;87.54
55757;BME280;41676;44.610;44.078;2023-12-28T00:14:50;100259.84;;;6.62;82.99
55757;BME280;41676;44.610;44.078;2023-12-28T00:19:51;100371.41;;;7.02;79.46
55757;BME280;41676;44.610;44.078;2023-12-28T00:24:52;100341.00;;;6.51;78.58
55757;BME280;41676;44.610;44.078;2023-12-28T00:29:53;100359.34;;;6.52;79.12
55757;BME280;41676;44.610;44.078;2023-12-28T00:34:54;100256.78;;;5.81;80.14
55757;BME280;41676;44.610;44.078;2023-12-28T00:39:55;100315.22;;;6.25;78.77
55757;BME280;41676;44.610;44.078;2023-12-28T00:44:55;100341.03;;;6.31;76.62
55757;BME280;41676;44.610;44.078;2023-12-28T00:49:56;100344.09;;;6.17;76.35
55757;BME280;41676;44.610;44.078;2023-12-28T00:54:57;100324.94;;;5.96;77.77
55757;BME280;41676;44.610;44.078;2023-12-28T00:59:58;100258.28;;;5.55;75.50
55757;BME280;41676;44.610;44.078;2023-12-28T01:04:58;100331.81;;;5.77;75.83
55757;BME280;41676;44.610;44.078;2023-12-28T01:09:59;100343.44;;;5.65;76.16
55757;BME280;41676;44.610;44.078;2023-12-28T01:15:00;100343.31;;;5.57;77.04
55757;BME280;41676;44.610;44.078;2023-12-28T01:20:01;100335.19;;;5.29;77.78
55757;BME280;41676;44.610;44.078;2023-12-28T01:25:02;100365.00;;;5.30;77.60
55757;BME280;41676;44.610;44.078;2023-12-28T01:30:03;100364.84;;;5.21;79.21
55757;BME280;41676;44.610;44.078;2023-12-28T01:35:04;100353.56;;;5.10;78.28
55757;BME280;41676;44.610;44.078;2023-12-28T01:40:06;100294.69;;;4.80;77.56
55757;BME280;41676;44.610;44.078;2023-12-28T01:45:07;100335.03;;;4.90;76.24
55757;BME280;41676;44.610;44.078;2023-12-28T01:50:09;100313.56;;;4.85;76.73
55757;BME280;41676;44.610;44.078;2023-12-28T01:55:10;100241.28;;;4.28;76.67
55757;BME280;41676;44.610;44.078;2023-12-28T02:00:11;100254.28;;;4.29;76.35
55757;BME280;41676;44.610;44.078;2023-12-28T02:05:12;100291.16;;;4.39;76.95
55757;BME280;41676;44.610;44.078;2023-12-28T02:10:13;100314.50;;;4.32;78.13
55757;BME280;41676;44.610;44.078;2023-12-28T02:15:14;100270.25;;;4.17;79.14
55757;BME280;41676;44.610;44.078;2023-12-28T02:20:15;100299.75;;;4.20;79.77
55757;BME280;41676;44.610;44.078;2023-12-28T02:25:17;100284.53;;;4.03;80.08
55757;BME280;41676;44.610;44.078;2023-12-28T02:30:21;100184.84;;;3.48;81.04
55757;BME280;41676;44.610;44.078;2023-12-28T02:35:44;100243.91;;;3.86;80.26
55757;BME280;41676;44.610;44.078;2023-12-28T02:40:47;100277.09;;;3.87;79.94
55757;BME280;41676;44.610;44.078;2023-12-28T02:45:49;100291.41;;;3.94;79.94
55757;BME280;41676;44.610;44.078;2023-12-28T02:50:50;100326.28;;;3.96;79.24
55757;BME280;41676;44.610;44.078;2023-12-28T02:55:50;100330.91;;;3.72;80.30
55757;BME280;41676;44.610;44.078;2023-12-28T03:00:51;100317.50;;;3.42;80.88
55757;BME280;41676;44.610;44.078;2023-12-28T03:05:52;100391.94;;;3.75;81.48
55757;BME280;41676;44.610;44.078;2023-12-28T03:10:53;100333.84;;;3.46;81.58
55757;BME280;41676;44.610;44.078;2023-12-28T03:15:55;100379.84;;;3.84;81.00
55757;BME280;41676;44.610;44.078;2023-12-28T03:20:56;100372.94;;;3.83;81.68
55757;BME280;41676;44.610;44.078;2023-12-28T03:25:57;100385.81;;;3.86;82.10
55757;BME280;41676;44.610;44.078;2023-12-28T03:30:58;100415.56;;;3.86;83.20
55757;BME280;41676;44.610;44.078;2023-12-28T03:35:59;100401.50;;;3.65;83.87
55757;BME280;41676;44.610;44.078;2023-12-28T03:41:00;100399.09;;;3.73;84.40
55757;BME280;41676;44.610;44.078;2023-12-28T03:46:01;100413.88;;;3.85;84.15
55757;BME280;41676;44.610;44.078;2023-12-28T03:51:02;100407.44;;;3.89;83.44
55757;BME280;41676;44.610;44.078;2023-12-28T03:56:03;100370.66;;;3.78;83.15
55757;BME280;41676;44.610;44.078;2023-12-28T04:01:04;100421.16;;;3.93;82.63
55757;BME280;41676;44.610;44.078;2023-12-28T04:06:05;100406.88;;;3.75;82.64
55757;BME280;41676;44.610;44.078;2023-12-28T04:11:06;100372.25;;;3.58;81.68
55757;BME280;41676;44.610;44.078;2023-12-28T04:16:07;100373.31;;;3.56;81.26
55757;BME280;41676;44.610;44.078;2023-12-28T04:21:13;100406.28;;;3.60;80.94
55757;BME280;41676;44.610;44.078;2023-12-28T04:26:14;100466.81;;;3.81;81.46
55757;BME280;41676;44.610;44.078;2023-12-28T04:31:14;100487.34;;;3.76;82.30
55757;BME280;41676;44.610;44.078;2023-12-28T04:36:15;100516.72;;;3.81;82.19
55757;BME280;41676;44.610;44.078;2023-12-28T04:41:16;100459.66;;;3.49;82.60
55757;BME280;41676;44.610;44.078;2023-12-28T04:46:17;100521.50;;;3.76;83.08
55757;BME280;41676;44.610;44.078;2023-12-28T04:51:18;100545.88;;;3.78;84.31
55757;BME280;41676;44.610;44.078;2023-12-28T04:56:19;100554.34;;;3.70;83.98
55757;BME280;41676;44.610;44.078;2023-12-28T05:01:20;100580.28;;;3.75;84.32
55757;BME280;41676;44.610;44.078;2023-12-28T05:06:21;100588.25;;;3.62;84.54
55757;BME280;41676;44.610;44.078;2023-12-28T05:11:21;100616.47;;;3.71;84.71
55757;BME280;41676;44.610;44.078;2023-12-28T05:16:22;100610.13;;;3.74;85.13
55757;BME280;41676;44.610;44.078;2023-12-28T05:21:23;100593.97;;;3.56;84.51
55757;BME280;41676;44.610;44.078;2023-12-28T05:26:24;100645.75;;;3.89;85.26
55757;BME280;41676;44.610;44.078;2023-12-28T05:31:24;100661.28;;;4.03;84.72
55757;BME280;41676;44.610;44.078;2023-12-28T05:36:25;100683.88;;;4.17;84.93
55757;BME280;41676;44.610;44.078;2023-12-28T05:41:26;100691.41;;;4.33;84.76
55757;BME280;41676;44.610;44.078;2023-12-28T05:46:26;100695.38;;;4.39;84.55
55757;BME280;41676;44.610;44.078;2023-12-28T05:51:27;100740.69;;;4.53;83.59
55757;BME280;41676;44.610;44.078;2023-12-28T05:56:28;100738.66;;;4.68;83.05
55757;BME280;41676;44.610;44.078;2023-12-28T06:01:29;100735.19;;;4.68;81.90
55757;BME280;41676;44.610;44.078;2023-12-28T06:06:30;100725.03;;;4.74;81.39
55757;BME280;41676;44.610;44.078;2023-12-28T06:11:30;100734.22;;;4.80;81.05
55757;BME280;41676;44.610;44.078;2023-12-28T06:16:31;100736.38;;;4.86;81.84
55757;BME280;41676;44.610;44.078;2023-12-28T06:21:33;100717.03;;;4.65;81.92
55757;BME280;41676;44.610;44.078;2023-12-28T06:26:39;100748.34;;;4.68;82.43
55757;BME280;41676;44.610;44.078;2023-12-28T06:31:40;100775.38;;;5.03;83.19
55757;BME280;41676;44.610;44.078;2023-12-28T06:42:32;100791.25;;;5.24;83.54
55757;BME280;41676;44.610;44.078;2023-12-28T06:47:33;100843.22;;;5.11;84.67
55757;BME280;41676;44.610;44.078;2023-12-28T06:52:33;100832.78;;;4.53;86.24
55757;BME280;41676;44.610;44.078;2023-12-28T06:57:34;100885.50;;;3.32;90.68
55757;BME280;41676;44.610;44.078;2023-12-28T07:02:35;100901.91;;;2.71;95.77
55757;BME280;41676;44.610;44.078;2023-12-28T07:07:36;100830.47;;;1.90;99.49
55757;BME280;41676;44.610;44.078;2023-12-28T07:12:37;100901.97;;;2.32;100.00
55757;BME280;41676;44.610;44.078;2023-12-28T07:17:38;100904.63;;;2.57;100.00
55757;BME280;41676;44.610;44.078;2023-12-28T07:22:39;100851.03;;;2.48;100.00
55757;BME280;41676;44.610;44.078;2023-12-28T07:27:40;100842.50;;;3.09;100.00
55757;BME280;41676;44.610;44.078;2023-12-28T07:32:42;100896.47;;;3.62;100.00
55757;BME280;41676;44.610;44.078;2023-12-28T07:37:42;100846.63;;;3.37;100.00
55757;BME280;41676;44.610;44.078;2023-12-28T07:42:44;100886.72;;;3.52;100.00
55757;BME280;41676;44.610;44.078;2023-12-28T07:47:45;100880.19;;;3.57;100.00
55757;BME280;41676;44.610;44.078;2023-12-28T07:52:47;100852.56;;;3.15;100.00
55757;BME280;41676;44.610;44.078;2023-12-28T07:57:48;100905.38;;;3.10;100.00
55757;BME280;41676;44.610;44.078;2023-12-28T08:02:49;100897.25;;;3.39;100.00
55757;BME280;41676;44.610;44.078;2023-12-28T08:07:50;100864.00;;;3.63;100.00
55757;BME280;41676;44.610;44.078;2023-12-28T08:12:51;100903.03;;;4.29;100.00
55757;BME280;41676;44.610;44.078;2023-12-28T08:17:51;100829.47;;;4.16;97.82
55757;BME280;41676;44.610;44.078;2023-12-28T08:22:52;100898.41;;;4.44;96.97
55757;BME280;41676;44.610;44.078;2023-12-28T08:27:53;100884.72;;;4.74;93.29
55757;BME280;41676;44.610;44.078;2023-12-28T08:32:54;100856.03;;;5.04;90.56
55757;BME280;41676;44.610;44.078;2023-12-28T08:37:54;100840.72;;;4.98;87.29
55757;BME280;41676;44.610;44.078;2023-12-28T08:42:55;100821.94;;;5.03;84.62
55757;BME280;41676;44.610;44.078;2023-12-28T08:47:56;100899.47;;;5.66;83.36
55757;BME280;41676;44.610;44.078;2023-12-28T08:52:57;100883.41;;;5.69;80.80
55757;BME280;41676;44.610;44.078;2023-12-28T08:57:57;100894.38;;;5.86;79.61
55757;BME280;41676;44.610;44.078;2023-12-28T09:02:58;100919.66;;;6.00;76.09
55757;BME280;41676;44.610;44.078;2023-12-28T09:07:59;100922.41;;;5.98;74.38
55757;BME280;41676;44.610;44.078;2023-12-28T09:13:00;100921.34;;;5.89;73.96
55757;BME280;41676;44.610;44.078;2023-12-28T09:18:00;100942.47;;;5.67;74.20
55757;BME280;41676;44.610;44.078;2023-12-28T09:23:01;100918.66;;;5.57;74.62
55757;BME280;41676;44.610;44.078;2023-12-28T09:28:02;100924.69;;;5.80;74.36
55757;BME280;41676;44.610;44.078;2023-12-28T09:33:03;100932.84;;;6.00;74.06
55757;BME280;41676;44.610;44.078;2023-12-28T09:38:04;100930.84;;;6.24;74.58
55757;BME280;41676;44.610;44.078;2023-12-28T09:43:24;100945.28;;;6.09;73.40
55757;BME280;41676;44.610;44.078;2023-12-28T09:48:25;100939.00;;;6.21;72.64
55757;BME280;41676;44.610;44.078;2023-12-28T09:53:26;100914.88;;;6.05;72.94
55757;BME280;41676;44.610;44.078;2023-12-28T09:58:27;100932.50;;;5.82;73.68
55757;BME280;41676;44.610;44.078;2023-12-28T10:03:30;100962.09;;;6.40;68.46
55757;BME280;41676;44.610;44.078;2023-12-28T10:08:30;100937.06;;;6.34;64.94
55757;BME280;41676;44.610;44.078;2023-12-28T10:13:33;100955.09;;;6.18;65.33
55757;BME280;41676;44.610;44.078;2023-12-28T10:18:34;100955.59;;;6.12;66.69
55757;BME280;41676;44.610;44.078;2023-12-28T10:23:36;100961.84;;;5.88;67.31
55757;BME280;41676;44.610;44.078;2023-12-28T10:28:37;100952.28;;;5.99;67.51
55757;BME280;41676;44.610;44.078;2023-12-28T10:33:39;100858.69;;;5.82;67.56
55757;BME280;41676;44.610;44.078;2023-12-28T10:38:41;100942.94;;;6.38;65.60
55757;BME280;41676;44.610;44.078;2023-12-28T10:43:46;100964.22;;;6.14;65.28
55757;BME280;41676;44.610;44.078;2023-12-28T10:48:53;100934.06;;;5.62;66.21
55757;BME280;41676;44.610;44.078;2023-12-28T11:04:44;100999.38;;;5.58;64.57
55757;BME280;41676;44.610;44.078;2023-12-28T11:09:47;100993.38;;;5.34;66.20
55757;BME280;41676;44.610;44.078;2023-12-28T11:14:49;101005.09;;;5.18;65.66
55757;BME280;41676;44.610;44.078;2023-12-28T11:19:53;101017.16;;;5.10;65.09
55757;BME280;41676;44.610;44.078;2023-12-28T11:24:56;101006.09;;;4.93;66.64
55757;BME280;41676;44.610;44.078;2023-12-28T11:29:57;100995.00;;;5.01;65.79
55757;BME280;41676;44.610;44.078;2023-12-28T11:34:58;100963.50;;;4.99;65.85
55757;BME280;41676;44.610;44.078;2023-12-28T11:40:10;101036.00;;;5.28;67.65
55757;BME280;41676;44.610;44.078;2023-12-28T11:45:11;101024.63;;;5.27;66.80
55757;BME280;41676;44.610;44.078;2023-12-28T11:50:12;101021.25;;;5.25;66.97
55757;BME280;41676;44.610;44.078;2023-12-28T11:55:21;101014.66;;;5.19;66.26
55757;BME280;41676;44.610;44.078;2023-12-28T12:00:23;101013.78;;;5.08;67.20
55757;BME280;41676;44.610;44.078;2023-12-28T12:05:26;101018.84;;;5.11;66.85
55757;BME280;41676;44.610;44.078;2023-12-28T12:10:27;101032.13;;;5.09;67.34
55757;BME280;41676;44.610;44.078;2023-12-28T12:15:29;100975.88;;;4.64;67.71
55757;BME280;41676;44.610;44.078;2023-12-28T12:20:30;101041.78;;;4.97;67.52
55757;BME280;41676;44.610;44.078;2023-12-28T12:25:31;101022.44;;;4.74;68.22
55757;BME280;41676;44.610;44.078;2023-12-28T12:30:32;101050.84;;;4.82;68.98
55757;BME280;41676;44.610;44.078;2023-12-28T12:35:33;101015.44;;;4.38;69.34
55757;BME280;41676;44.610;44.078;2023-12-28T12:40:34;101036.28;;;4.41;70.00
55757;BME280;41676;44.610;44.078;2023-12-28T12:45:35;101034.97;;;4.23;71.22
55757;BME280;41676;44.610;44.078;2023-12-28T12:50:36;101068.50;;;4.32;71.90
55757;BME280;41676;44.610;44.078;2023-12-28T12:55:37;101084.91;;;4.35;71.42
55757;BME280;41676;44.610;44.078;2023-12-28T13:00:42;101072.31;;;4.15;72.14
55757;BME280;41676;44.610;44.078;2023-12-28T13:05:45;101085.81;;;4.10;72.54
55757;BME280;41676;44.610;44.078;2023-12-28T13:10:46;101026.66;;;3.66;72.42
55757;BME280;41676;44.610;44.078;2023-12-28T13:15:47;101079.75;;;3.84;72.29
55757;BME280;41676;44.610;44.078;2023-12-28T13:20:47;101057.47;;;3.52;72.30
55757;BME280;41676;44.610;44.078;2023-12-28T13:25:48;101120.97;;;3.71;72.98
55757;BME280;41676;44.610;44.078;2023-12-28T13:30:49;101058.72;;;3.20;72.91
55757;BME280;41676;44.610;44.078;2023-12-28T13:35:51;101135.53;;;3.50;73.31
55757;BME280;41676;44.610;44.078;2023-12-28T13:40:53;101136.47;;;3.36;74.14
55757;BME280;41676;44.610;44.078;2023-12-28T13:45:53;101130.72;;;3.16;75.20
55757;BME280;41676;44.610;44.078;2023-12-28T13:50:54;101095.16;;;2.85;75.97
55757;BME280;41676;44.610;44.078;2023-12-28T13:55:56;101092.59;;;2.71;76.97
55757;BME280;41676;44.610;44.078;2023-12-28T14:00:56;101087.97;;;2.47;77.75
55757;BME280;41676;44.610;44.078;2023-12-28T14:05:57;101147.41;;;2.76;78.27
55757;BME280;41676;44.610;44.078;2023-12-28T14:10:58;101162.59;;;2.70;78.61
55757;BME280;41676;44.610;44.078;2023-12-28T14:15:59;101095.34;;;2.28;78.55
55757;BME280;41676;44.610;44.078;2023-12-28T14:20:59;101164.28;;;2.57;78.73
55757;BME280;41676;44.610;44.078;2023-12-28T14:26:03;101170.59;;;2.55;78.17
55757;BME280;41676;44.610;44.078;2023-12-28T14:31:05;101175.28;;;2.49;77.83
55757;BME280;41676;44.610;44.078;2023-12-28T14:41:50;101140.47;;;1.90;78.50
55757;BME280;41676;44.610;44.078;2023-12-28T14:46:53;101176.78;;;2.11;78.71
55757;BME280;41676;44.610;44.078;2023-12-28T14:51:55;101077.06;;;1.41;78.99
55757;BME280;41676;44.610;44.078;2023-12-28T14:56:56;101170.03;;;1.92;79.08
55757;BME280;41676;44.610;44.078;2023-12-28T15:01:56;101174.63;;;1.89;79.36
55757;BME280;41676;44.610;44.078;2023-12-28T15:06:58;101166.34;;;1.66;79.54
55757;BME280;41676;44.610;44.078;2023-12-28T15:11:59;101181.88;;;1.69;79.88
55757;BME280;41676;44.610;44.078;2023-12-28T15:17:00;101187.66;;;1.60;80.27
55757;BME280;41676;44.610;44.078;2023-12-28T15:22:01;101182.97;;;1.51;80.33
55757;BME280;41676;44.610;44.078;2023-12-28T15:27:02;101166.34;;;1.36;80.84
55757;BME280;41676;44.610;44.078;2023-12-28T15:32:03;101222.72;;;1.57;80.98
55757;BME280;41676;44.610;44.078;2023-12-28T15:37:05;101245.28;;;1.60;81.42
55757;BME280;41676;44.610;44.078;2023-12-28T15:42:06;101181.16;;;1.21;80.89
55757;BME280;41676;44.610;44.078;2023-12-28T15:47:07;101262.66;;;1.61;81.71
55757;BME280;41676;44.610;44.078;2023-12-28T15:52:08;101243.94;;;1.53;81.93
55757;BME280;41676;44.610;44.078;2023-12-28T15:57:09;101263.28;;;1.50;82.68
55757;BME280;41676;44.610;44.078;2023-12-28T16:02:09;101206.09;;;1.12;83.59
55757;BME280;41676;44.610;44.078;2023-12-28T16:07:10;101234.34;;;1.22;83.82
55757;BME280;41676;44.610;44.078;2023-12-28T16:12:11;101286.38;;;1.44;84.26
55757;BME280;41676;44.610;44.078;2023-12-28T16:17:12;101283.41;;;1.34;84.36
55757;BME280;41676;44.610;44.078;2023-12-28T16:22:13;101276.22;;;1.37;84.76
55757;BME280;41676;44.610;44.078;2023-12-28T16:27:14;101262.72;;;1.29;85.14
55757;BME280;41676;44.610;44.078;2023-12-28T16:32:14;101238.69;;;1.23;85.53
55757;BME280;41676;44.610;44.078;2023-12-28T16:37:15;101296.75;;;1.29;86.04
55757;BME280;41676;44.610;44.078;2023-12-28T16:42:16;101308.41;;;1.24;86.84
55757;BME280;41676;44.610;44.078;2023-12-28T16:47:17;101314.22;;;1.13;87.58
55757;BME280;41676;44.610;44.078;2023-12-28T16:52:18;101321.66;;;1.05;87.53
55757;BME280;41676;44.610;44.078;2023-12-28T16:57:18;101323.06;;;0.95;87.96
55757;BME280;41676;44.610;44.078;2023-12-28T17:02:20;101314.19;;;0.81;88.31
55757;BME280;41676;44.610;44.078;2023-12-28T17:07:23;101328.00;;;0.83;88.58
55757;BME280;41676;44.610;44.078;2023-12-28T17:12:39;101316.25;;;0.75;90.06
55757;BME280;41676;44.610;44.078;2023-12-28T17:17:42;101333.25;;;0.83;89.08
55757;BME280;41676;44.610;44.078;2023-12-28T17:22:47;101314.34;;;0.78;89.04
55757;BME280;41676;44.610;44.078;2023-12-28T17:27:55;101313.72;;;1.06;88.75
55757;BME280;41676;44.610;44.078;2023-12-28T17:33:02;101349.50;;;1.37;88.22
55757;BME280;41676;44.610;44.078;2023-12-28T17:38:03;101342.59;;;1.52;87.49
55757;BME280;41676;44.610;44.078;2023-12-28T17:43:45;101358.31;;;1.68;88.52
55757;BME280;41676;44.610;44.078;2023-12-28T17:48:48;101361.28;;;1.62;87.43
55757;BME280;41676;44.610;44.078;2023-12-28T17:53:51;101362.13;;;1.63;87.52
55757;BME280;41676;44.610;44.078;2023-12-28T17:58:52;101357.47;;;1.52;87.43
55757;BME280;41676;44.610;44.078;2023-12-28T18:03:53;101336.41;;;1.37;87.88
55757;BME280;41676;44.610;44.078;2023-12-28T18:08:54;101377.50;;;1.53;87.85
55757;BME280;41676;44.610;44.078;2023-12-28T18:13:55;101301.47;;;0.91;87.88
55757;BME280;41676;44.610;44.078;2023-12-28T18:18:55;101403.75;;;1.35;88.50
55757;BME280;41676;44.610;44.078;2023-12-28T18:23:59;101377.97;;;1.12;88.26
55757;BME280;41676;44.610;44.078;2023-12-28T18:29:00;101367.78;;;0.90;88.93
55757;BME280;41676;44.610;44.078;2023-12-28T18:34:01;101405.13;;;1.09;88.82
55757;BME280;41676;44.610;44.078;2023-12-28T18:39:02;101403.22;;;0.96;89.10
55757;BME280;41676;44.610;44.078;2023-12-28T18:44:03;101409.66;;;0.90;89.56
55757;BME280;41676;44.610;44.078;2023-12-28T18:49:04;101416.41;;;0.94;89.92
55757;BME280;41676;44.610;44.078;2023-12-28T18:54:05;101425.41;;;0.88;89.84
55757;BME280;41676;44.610;44.078;2023-12-28T18:59:06;101375.75;;;0.54;90.18
55757;BME280;41676;44.610;44.078;2023-12-28T19:04:06;101380.81;;;0.57;90.12
55757;BME280;41676;44.610;44.078;2023-12-28T19:09:07;101360.25;;;0.33;90.87
55757;BME280;41676;44.610;44.078;2023-12-28T19:14:08;101436.13;;;0.66;91.35
55757;BME280;41676;44.610;44.078;2023-12-28T19:19:09;101429.81;;;0.53;91.46
55757;BME280;41676;44.610;44.078;2023-12-28T19:24:10;101431.06;;;0.46;91.76
55757;BME280;41676;44.610;44.078;2023-12-28T19:29:11;101462.28;;;0.49;92.34
55757;BME280;41676;44.610;44.078;2023-12-28T19:34:12;101465.03;;;0.46;92.38
55757;BME280;41676;44.610;44.078;2023-12-28T19:39:12;101420.34;;;0.16;92.52
55757;BME280;41676;44.610;44.078;2023-12-28T19:44:13;101472.34;;;0.39;93.38
55757;BME280;41676;44.610;44.078;2023-12-28T19:49:14;101483.84;;;0.35;93.28
55757;BME280;41676;44.610;44.078;2023-12-28T19:54:15;101467.13;;;0.20;93.58
55757;BME280;41676;44.610;44.078;2023-12-28T19:59:16;101436.78;;;0.01;93.67
55757;BME280;41676;44.610;44.078;2023-12-28T20:04:17;101454.81;;;0.05;93.43
55757;BME280;41676;44.610;44.078;2023-12-28T20:09:17;101471.97;;;0.11;94.31
55757;BME280;41676;44.610;44.078;2023-12-28T20:14:18;101494.50;;;0.13;94.26
55757;BME280;41676;44.610;44.078;2023-12-28T20:19:19;101431.78;;;-0.23;94.35
55757;BME280;41676;44.610;44.078;2023-12-28T20:24:20;101432.41;;;-0.18;94.55
55757;BME280;41676;44.610;44.078;2023-12-28T20:29:21;101370.28;;;-0.48;94.70
55757;BME280;41676;44.610;44.078;2023-12-28T20:34:22;101450.03;;;-0.04;94.53
55757;BME280;41676;44.610;44.078;2023-12-28T20:39:23;101466.69;;;0.12;94.35
55757;BME280;41676;44.610;44.078;2023-12-28T20:44:24;101499.97;;;0.26;94.67
55757;BME280;41676;44.610;44.078;2023-12-28T20:49:25;101520.59;;;0.32;94.24
55757;BME280;41676;44.610;44.078;2023-12-28T20:54:26;101515.47;;;0.31;94.05
55757;BME280;41676;44.610;44.078;2023-12-28T20:59:26;101509.38;;;0.30;93.96
55757;BME280;41676;44.610;44.078;2023-12-28T21:04:27;101504.06;;;0.32;94.52
55757;BME280;41676;44.610;44.078;2023-12-28T21:09:28;101468.56;;;0.09;94.20
55757;BME280;41676;44.610;44.078;2023-12-28T21:14:29;101418.97;;;-0.10;93.95
55757;BME280;41676;44.610;44.078;2023-12-28T21:19:31;101485.63;;;0.35;93.80
55757;BME280;41676;44.610;44.078;2023-12-28T21:24:32;101511.25;;;0.45;93.97
55757;BME280;41676;44.610;44.078;2023-12-28T21:29:35;101486.16;;;0.41;93.97
55757;BME280;41676;44.610;44.078;2023-12-28T21:34:39;101475.72;;;0.41;93.71
55757;BME280;41676;44.610;44.078;2023-12-28T21:39:41;101490.88;;;0.52;93.26
55757;BME280;41676;44.610;44.078;2023-12-28T21:44:41;101403.56;;;0.03;93.10
55757;BME280;41676;44.610;44.078;2023-12-28T21:49:43;101486.78;;;0.47;93.66
55757;BME280;41676;44.610;44.078;2023-12-28T21:54:44;101508.34;;;0.52;94.05
55757;BME280;41676;44.610;44.078;2023-12-28T21:59:44;101514.97;;;0.59;94.10
55757;BME280;41676;44.610;44.078;2023-12-28T22:04:45;101515.75;;;0.61;93.83
55757;BME280;41676;44.610;44.078;2023-12-28T22:09:46;101496.91;;;0.54;93.47
55757;BME280;41676;44.610;44.078;2023-12-28T22:14:47;101481.72;;;0.43;93.03
55757;BME280;41676;44.610;44.078;2023-12-28T22:19:48;101504.66;;;0.56;93.81
55757;BME280;41676;44.610;44.078;2023-12-28T22:24:48;101510.81;;;0.55;93.29
55757;BME280;41676;44.610;44.078;2023-12-28T22:29:49;101433.41;;;0.16;93.26
55757;BME280;41676;44.610;44.078;2023-12-28T22:34:50;101504.59;;;0.57;93.20
55757;BME280;41676;44.610;44.078;2023-12-28T22:39:51;101458.25;;;0.25;93.07
55757;BME280;41676;44.610;44.078;2023-12-28T22:44:52;101510.88;;;0.53;92.62
55757;BME280;41676;44.610;44.078;2023-12-28T22:49:53;101458.22;;;0.07;92.76
55757;BME280;41676;44.610;44.078;2023-12-28T22:54:54;101511.91;;;0.32;92.96
55757;BME280;41676;44.610;44.078;2023-12-28T22:59:54;101512.56;;;0.18;93.00
55757;BME280;41676;44.610;44.078;2023-12-28T23:04:55;101526.94;;;0.09;92.67
55757;BME280;41676;44.610;44.078;2023-12-28T23:09:56;101464.44;;;-0.33;93.36
55757;BME280;41676;44.610;44.078;2023-12-28T23:14:57;101444.81;;;-0.42;92.90
55757;BME280;41676;44.610;44.078;2023-12-28T23:19:57;101484.00;;;-0.23;92.99
55757;BME280;41676;44.610;44.078;2023-12-28T23:24:59;101506.31;;;-0.16;93.65
55757;BME280;41676;44.610;44.078;2023-12-28T23:30:00;101408.84;;;-0.73;93.36
55757;BME280;41676;44.610;44.078;2023-12-28T23:35:01;101503.41;;;-0.10;93.59
55757;BME280;41676;44.610;44.078;2023-12-28T23:40:02;101490.56;;;-0.14;93.54
55757;BME280;41676;44.610;44.078;2023-12-28T23:45:04;101485.25;;;-0.13;93.84
55757;BME280;41676;44.610;44.078;2023-12-28T23:50:05;101424.97;;;-0.44;92.97
55757;BME280;41676;44.610;44.078;2023-12-28T23:55:07;101489.72;;;-0.15;93.48
